sensor_id;sensor_type;location;lat;lon;timestamp;pressure;altitude;pressure_sealevel;temperature;humidity
13968;BME280;39536;52.198;9.920;2023-03-01T00:01:08;102237.88;;;-0.68;100.00
13968;BME280;39536;52.198;9.920;2023-03-01T00:03:35;102240.44;;;-0.68;100.00
13968;BME280;39536;52.198;9.920;2023-03-01T00:06:03;102243.50;;;-0.77;100.00
13968;BME280;39536;52.198;9.920;2023-03-01T00:08:32;102246.03;;;-0.77;100.00
13968;BME280;39536;52.198;9.920;2023-03-01T00:11:03;102247.28;;;-0.88;100.00
13968;BME280;39536;52.198;9.920;2023-03-01T00:13:30;102242.41;;;-0.82;100.00
13968;BME280;39536;52.198;9.920;2023-03-01T00:15:57;102248.41;;;-0.81;100.00
13968;BME280;39536;52.198;9.920;2023-03-01T00:18:23;102246.09;;;-0.75;100.00
13968;BME280;39536;52.198;9.920;2023-03-01T00:20:50;102252.50;;;-0.85;100.00
13968;BME280;39536;52.198;9.920;2023-03-01T00:23:17;102256.88;;;-0.82;100.00
13968;BME280;39536;52.198;9.920;2023-03-01T00:25:45;102253.47;;;-0.83;100.00
13968;BME280;39536;52.198;9.920;2023-03-01T00:28:12;102252.78;;;-0.79;100.00
13968;BME280;39536;52.198;9.920;2023-03-01T00:30:38;102249.34;;;-0.79;100.00
13968;BME280;39536;52.198;9.920;2023-03-01T00:33:05;102254.28;;;-0.84;100.00
13968;BME280;39536;52.198;9.920;2023-03-01T00:35:31;102251.84;;;-0.81;100.00
13968;BME280;39536;52.198;9.920;2023-03-01T00:37:58;102253.47;;;-0.83;100.00
13968;BME280;39536;52.198;9.920;2023-03-01T00:40:25;102247.47;;;-0.83;100.00
13968;BME280;39536;52.198;9.920;2023-03-01T00:42:53;102246.47;;;-0.87;100.00
13968;BME280;39536;52.198;9.920;2023-03-01T00:45:19;102237.03;;;-0.88;100.00
13968;BME280;39536;52.198;9.920;2023-03-01T00:47:46;102234.22;;;-0.94;100.00
13968;BME280;39536;52.198;9.920;2023-03-01T00:50:13;102233.47;;;-0.91;100.00
13968;BME280;39536;52.198;9.920;2023-03-01T00:52:39;102225.75;;;-0.93;100.00
13968;BME280;39536;52.198;9.920;2023-03-01T00:55:07;102228.06;;;-0.99;100.00
13968;BME280;39536;52.198;9.920;2023-03-01T00:57:33;102225.16;;;-1.07;100.00
13968;BME280;39536;52.198;9.920;2023-03-01T01:00:01;102231.78;;;-1.12;100.00
13968;BME280;39536;52.198;9.920;2023-03-01T01:02:29;102231.03;;;-1.09;100.00
13968;BME280;39536;52.198;9.920;2023-03-01T01:04:56;102233.72;;;-1.06;100.00
13968;BME280;39536;52.198;9.920;2023-03-01T01:07:22;102234.53;;;-1.07;100.00
13968;BME280;39536;52.198;9.920;2023-03-01T01:09:48;102233.97;;;-1.21;100.00
13968;BME280;39536;52.198;9.920;2023-03-01T01:12:15;102224.38;;;-1.25;100.00
13968;BME280;39536;52.198;9.920;2023-03-01T01:14:41;102234.88;;;-1.19;100.00
13968;BME280;39536;52.198;9.920;2023-03-01T01:17:09;102235.47;;;-1.25;100.00
13968;BME280;39536;52.198;9.920;2023-03-01T01:19:36;102231.31;;;-1.23;100.00
13968;BME280;39536;52.198;9.920;2023-03-01T01:22:03;102233.97;;;-1.21;100.00
13968;BME280;39536;52.198;9.920;2023-03-01T01:26:54;102226.28;;;-1.21;100.00
13968;BME280;39536;52.198;9.920;2023-03-01T01:29:22;102225.53;;;-1.19;100.00
13968;BME280;39536;52.198;9.920;2023-03-01T01:31:49;102224.06;;;-1.33;100.00
13968;BME280;39536;52.198;9.920;2023-03-01T01:34:19;102212.34;;;-1.28;100.00
13968;BME280;39536;52.198;9.920;2023-03-01T01:36:48;102216.66;;;-1.27;100.00
13968;BME280;39536;52.198;9.920;2023-03-01T01:39:15;102217.41;;;-1.29;100.00
13968;BME280;39536;52.198;9.920;2023-03-01T01:41:42;102211.34;;;-1.31;100.00
13968;BME280;39536;52.198;9.920;2023-03-01T01:44:15;102200.06;;;-1.36;100.00
13968;BME280;39536;52.198;9.920;2023-03-01T01:46:45;102207.91;;;-1.32;100.00
13968;BME280;39536;52.198;9.920;2023-03-01T01:49:20;102216.06;;;-1.41;100.00
13968;BME280;39536;52.198;9.920;2023-03-01T01:51:51;102214.25;;;-1.43;100.00
13968;BME280;39536;52.198;9.920;2023-03-01T01:54:24;102217.59;;;-1.44;100.00
13968;BME280;39536;52.198;9.920;2023-03-01T01:56:55;102210.94;;;-1.41;100.00
13968;BME280;39536;52.198;9.920;2023-03-01T01:59:24;102206.03;;;-1.36;100.00
13968;BME280;39536;52.198;9.920;2023-03-01T02:01:51;102209.94;;;-1.44;100.00
13968;BME280;39536;52.198;9.920;2023-03-01T02:04:20;102205.78;;;-1.42;100.00
13968;BME280;39536;52.198;9.920;2023-03-01T02:07:09;102192.31;;;-1.38;100.00
13968;BME280;39536;52.198;9.920;2023-03-01T02:09:41;102197.28;;;-1.41;100.00
13968;BME280;39536;52.198;9.920;2023-03-01T02:12:08;102193.59;;;-1.48;100.00
13968;BME280;39536;52.198;9.920;2023-03-01T02:14:35;102195.28;;;-1.48;100.00
13968;BME280;39536;52.198;9.920;2023-03-01T02:17:02;102187.69;;;-1.47;100.00
13968;BME280;39536;52.198;9.920;2023-03-01T02:19:42;102185.06;;;-1.48;100.00
13968;BME280;39536;52.198;9.920;2023-03-01T02:22:16;102188.44;;;-1.49;100.00
13968;BME280;39536;52.198;9.920;2023-03-01T02:24:52;102185.69;;;-1.54;100.00
13968;BME280;39536;52.198;9.920;2023-03-01T02:27:29;102188.03;;;-1.58;100.00
13968;BME280;39536;52.198;9.920;2023-03-01T02:30:00;102174.25;;;-1.62;100.00
13968;BME280;39536;52.198;9.920;2023-03-01T02:32:27;102181.13;;;-1.61;100.00
13968;BME280;39536;52.198;9.920;2023-03-01T02:34:53;102182.53;;;-1.68;100.00
13968;BME280;39536;52.198;9.920;2023-03-01T02:37:20;102174.66;;;-1.72;100.00
13968;BME280;39536;52.198;9.920;2023-03-01T02:39:53;102169.69;;;-1.69;100.00
13968;BME280;39536;52.198;9.920;2023-03-01T02:42:26;102174.06;;;-1.67;100.00
13968;BME280;39536;52.198;9.920;2023-03-01T02:45:10;102166.94;;;-1.74;100.00
13968;BME280;39536;52.198;9.920;2023-03-01T02:47:37;102165.97;;;-1.76;100.00
13968;BME280;39536;52.198;9.920;2023-03-01T02:50:13;102164.03;;;-1.81;100.00
13968;BME280;39536;52.198;9.920;2023-03-01T02:52:45;102160.41;;;-1.87;100.00
13968;BME280;39536;52.198;9.920;2023-03-01T02:55:20;102168.88;;;-1.88;100.00
13968;BME280;39536;52.198;9.920;2023-03-01T02:57:48;102164.69;;;-2.05;100.00
13968;BME280;39536;52.198;9.920;2023-03-01T03:00:19;102160.66;;;-2.00;100.00
13968;BME280;39536;52.198;9.920;2023-03-01T03:02:50;102165.31;;;-1.91;100.00
13968;BME280;39536;52.198;9.920;2023-03-01T03:05:20;102156.69;;;-1.93;100.00
13968;BME280;39536;52.198;9.920;2023-03-01T03:07:47;102154.81;;;-1.97;100.00
13968;BME280;39536;52.198;9.920;2023-03-01T03:10:17;102148.50;;;-2.05;100.00
13968;BME280;39536;52.198;9.920;2023-03-01T03:12:49;102143.78;;;-2.16;100.00
13968;BME280;39536;52.198;9.920;2023-03-01T03:15:17;102144.06;;;-2.10;100.00
13968;BME280;39536;52.198;9.920;2023-03-01T03:17:45;102139.63;;;-2.14;100.00
13968;BME280;39536;52.198;9.920;2023-03-01T03:20:14;102138.94;;;-2.10;100.00
13968;BME280;39536;52.198;9.920;2023-03-01T03:22:44;102138.41;;;-2.22;100.00
13968;BME280;39536;52.198;9.920;2023-03-01T03:25:13;102136.13;;;-2.16;100.00
13968;BME280;39536;52.198;9.920;2023-03-01T03:27:41;102139.34;;;-2.20;100.00
13968;BME280;39536;52.198;9.920;2023-03-01T03:30:11;102132.38;;;-2.24;100.00
13968;BME280;39536;52.198;9.920;2023-03-01T03:32:41;102137.38;;;-2.25;100.00
13968;BME280;39536;52.198;9.920;2023-03-01T03:35:09;102140.81;;;-2.25;100.00
13968;BME280;39536;52.198;9.920;2023-03-01T03:37:37;102144.38;;;-2.21;100.00
13968;BME280;39536;52.198;9.920;2023-03-01T03:40:28;102144.38;;;-2.21;100.00
13968;BME280;39536;52.198;9.920;2023-03-01T03:42:56;102143.59;;;-2.20;100.00
13968;BME280;39536;52.198;9.920;2023-03-01T03:45:24;102152.31;;;-2.15;100.00
13968;BME280;39536;52.198;9.920;2023-03-01T03:47:52;102143.44;;;-2.23;100.00
13968;BME280;39536;52.198;9.920;2023-03-01T03:50:19;102143.16;;;-2.29;100.00
13968;BME280;39536;52.198;9.920;2023-03-01T03:52:47;102141.47;;;-2.29;100.00
13968;BME280;39536;52.198;9.920;2023-03-01T03:55:14;102140.81;;;-2.25;100.00
13968;BME280;39536;52.198;9.920;2023-03-01T03:57:45;102145.19;;;-2.22;100.00
13968;BME280;39536;52.198;9.920;2023-03-01T04:00:17;102142.78;;;-2.19;100.00
13968;BME280;39536;52.198;9.920;2023-03-01T04:02:45;102137.53;;;-2.22;100.00
13968;BME280;39536;52.198;9.920;2023-03-01T04:05:15;102137.53;;;-2.22;100.00
13968;BME280;39536;52.198;9.920;2023-03-01T04:07:43;102137.38;;;-2.25;100.00
13968;BME280;39536;52.198;9.920;2023-03-01T04:10:12;102136.56;;;-2.24;100.00
13968;BME280;39536;52.198;9.920;2023-03-01T04:12:39;102132.16;;;-2.28;100.00
13968;BME280;39536;52.198;9.920;2023-03-01T04:15:09;102128.78;;;-2.27;100.00
13968;BME280;39536;52.198;9.920;2023-03-01T04:17:39;102131.41;;;-2.26;100.00
13968;BME280;39536;52.198;9.920;2023-03-01T04:20:17;102134.56;;;-2.32;100.00
13968;BME280;39536;52.198;9.920;2023-03-01T04:22:50;102139.81;;;-2.28;100.00
13968;BME280;39536;52.198;9.920;2023-03-01T04:25:17;102145.78;;;-2.28;100.00
13968;BME280;39536;52.198;9.920;2023-03-01T04:27:45;102149.00;;;-2.32;100.00
13968;BME280;39536;52.198;9.920;2023-03-01T04:30:12;102144.63;;;-2.35;100.00
13968;BME280;39536;52.198;9.920;2023-03-01T04:32:40;102155.78;;;-2.33;100.00
13968;BME280;39536;52.198;9.920;2023-03-01T04:35:08;102152.66;;;-2.45;100.00
13968;BME280;39536;52.198;9.920;2023-03-01T04:37:50;102150.63;;;-2.52;100.00
13968;BME280;39536;52.198;9.920;2023-03-01T04:40:17;102152.44;;;-2.49;100.00
13968;BME280;39536;52.198;9.920;2023-03-01T04:42:44;102149.81;;;-2.51;100.00
13968;BME280;39536;52.198;9.920;2023-03-01T04:45:11;102152.38;;;-2.51;100.00
13968;BME280;39536;52.198;9.920;2023-03-01T04:47:40;102151.56;;;-2.50;100.00
13968;BME280;39536;52.198;9.920;2023-03-01T04:50:09;102143.63;;;-2.56;100.00
13968;BME280;39536;52.198;9.920;2023-03-01T04:52:36;102146.03;;;-2.59;100.00
13968;BME280;39536;52.198;9.920;2023-03-01T04:55:06;102145.41;;;-2.55;100.00
13968;BME280;39536;52.198;9.920;2023-03-01T04:57:33;102151.41;;;-2.53;100.00
13968;BME280;39536;52.198;9.920;2023-03-01T05:00:00;102143.44;;;-2.61;100.00
13968;BME280;39536;52.198;9.920;2023-03-01T05:02:26;102145.16;;;-2.60;100.00
13968;BME280;39536;52.198;9.920;2023-03-01T05:04:53;102143.47;;;-2.59;100.00
13968;BME280;39536;52.198;9.920;2023-03-01T05:07:23;102144.34;;;-2.59;100.00
13968;BME280;39536;52.198;9.920;2023-03-01T05:09:52;102146.56;;;-2.66;100.00
13968;BME280;39536;52.198;9.920;2023-03-01T05:12:22;102145.53;;;-2.70;100.00
13968;BME280;39536;52.198;9.920;2023-03-01T05:15:04;102139.91;;;-2.63;100.00
13968;BME280;39536;52.198;9.920;2023-03-01T05:17:32;102135.63;;;-2.64;100.00
13968;BME280;39536;52.198;9.920;2023-03-01T05:19:59;102131.41;;;-2.63;100.00
13968;BME280;39536;52.198;9.920;2023-03-01T05:22:26;102131.50;;;-2.62;100.00
13968;BME280;39536;52.198;9.920;2023-03-01T05:24:53;102128.13;;;-2.61;100.00
13968;BME280;39536;52.198;9.920;2023-03-01T05:27:22;102124.63;;;-2.63;100.00
13968;BME280;39536;52.198;9.920;2023-03-01T05:29:48;102131.34;;;-2.65;100.00
13968;BME280;39536;52.198;9.920;2023-03-01T05:32:15;102130.66;;;-2.79;100.00
13968;BME280;39536;52.198;9.920;2023-03-01T05:34:42;102130.09;;;-2.91;100.00
13968;BME280;39536;52.198;9.920;2023-03-01T05:37:11;102133.75;;;-2.86;100.00
13968;BME280;39536;52.198;9.920;2023-03-01T05:39:39;102131.09;;;-2.87;100.00
13968;BME280;39536;52.198;9.920;2023-03-01T05:42:10;102133.78;;;-2.84;100.00
13968;BME280;39536;52.198;9.920;2023-03-01T05:44:38;102131.09;;;-2.87;100.00
13968;BME280;39536;52.198;9.920;2023-03-01T05:47:09;102136.78;;;-2.93;100.00
13968;BME280;39536;52.198;9.920;2023-03-01T05:49:37;102128.34;;;-2.92;100.00
13968;BME280;39536;52.198;9.920;2023-03-01T05:52:04;102134.22;;;-2.93;100.00
13968;BME280;39536;52.198;9.920;2023-03-01T05:54:31;102135.28;;;-2.89;100.00
13968;BME280;39536;52.198;9.920;2023-03-01T05:56:58;102135.28;;;-2.89;100.00
13968;BME280;39536;52.198;9.920;2023-03-01T05:59:25;102129.78;;;-2.97;100.00
13968;BME280;39536;52.198;9.920;2023-03-01T06:02:12;102123.31;;;-2.90;100.00
13968;BME280;39536;52.198;9.920;2023-03-01T06:04:52;102120.84;;;-2.89;100.00
13968;BME280;39536;52.198;9.920;2023-03-01T06:07:20;102122.69;;;-2.86;100.00
13968;BME280;39536;52.198;9.920;2023-03-01T06:09:47;102135.72;;;-2.80;100.00
13968;BME280;39536;52.198;9.920;2023-03-01T06:12:14;102128.69;;;-2.84;100.00
13968;BME280;39536;52.198;9.920;2023-03-01T06:14:41;102126.88;;;-2.87;100.00
13968;BME280;39536;52.198;9.920;2023-03-01T06:17:09;102125.06;;;-2.89;100.00
13968;BME280;39536;52.198;9.920;2023-03-01T06:19:36;102124.94;;;-2.92;100.00
13968;BME280;39536;52.198;9.920;2023-03-01T06:22:03;102123.16;;;-2.93;100.00
13968;BME280;39536;52.198;9.920;2023-03-01T06:24:29;102126.38;;;-2.80;100.00
13968;BME280;39536;52.198;9.920;2023-03-01T06:26:56;102126.56;;;-2.93;100.00
13968;BME280;39536;52.198;9.920;2023-03-01T06:29:23;102126.66;;;-2.91;100.00
13968;BME280;39536;52.198;9.920;2023-03-01T06:31:49;102129.72;;;-2.98;100.00
13968;BME280;39536;52.198;9.920;2023-03-01T06:37:33;102126.06;;;-3.04;100.00
13968;BME280;39536;52.198;9.920;2023-03-01T06:40:00;102133.06;;;-2.99;100.00
13968;BME280;39536;52.198;9.920;2023-03-01T06:42:30;102129.94;;;-2.94;100.00
13968;BME280;39536;52.198;9.920;2023-03-01T06:44:56;102124.25;;;-2.88;100.00
13968;BME280;39536;52.198;9.920;2023-03-01T06:47:23;102128.50;;;-2.89;100.00
13968;BME280;39536;52.198;9.920;2023-03-01T06:49:50;102137.06;;;-2.87;100.00
13968;BME280;39536;52.198;9.920;2023-03-01T06:52:16;102136.50;;;-2.81;100.00
13968;BME280;39536;52.198;9.920;2023-03-01T06:54:44;102130.97;;;-2.72;100.00
13968;BME280;39536;52.198;9.920;2023-03-01T06:57:11;102137.50;;;-2.78;100.00
13968;BME280;39536;52.198;9.920;2023-03-01T06:59:37;102140.00;;;-2.79;100.00
13968;BME280;39536;52.198;9.920;2023-03-01T07:02:04;102134.53;;;-2.69;100.00
13968;BME280;39536;52.198;9.920;2023-03-01T07:04:31;102131.69;;;-2.75;100.00
13968;BME280;39536;52.198;9.920;2023-03-01T07:10:36;102130.44;;;-2.65;100.00
13968;BME280;39536;52.198;9.920;2023-03-01T07:13:02;102128.47;;;-2.53;100.00
13968;BME280;39536;52.198;9.920;2023-03-01T07:15:32;102130.72;;;-2.41;100.00
13968;BME280;39536;52.198;9.920;2023-03-01T07:17:58;102125.84;;;-2.37;100.00
13968;BME280;39536;52.198;9.920;2023-03-01T07:20:25;102125.16;;;-2.33;100.00
13968;BME280;39536;52.198;9.920;2023-03-01T07:22:55;102124.56;;;-2.27;100.00
13968;BME280;39536;52.198;9.920;2023-03-01T07:25:23;102117.28;;;-2.37;100.00
13968;BME280;39536;52.198;9.920;2023-03-01T07:27:52;102112.47;;;-2.31;100.00
13968;BME280;39536;52.198;9.920;2023-03-01T07:30:19;102114.00;;;-2.35;100.00
13968;BME280;39536;52.198;9.920;2023-03-01T07:32:45;102109.72;;;-2.36;100.00
13968;BME280;39536;52.198;9.920;2023-03-01T07:35:12;102111.94;;;-2.24;100.00
13968;BME280;39536;52.198;9.920;2023-03-01T07:37:40;102106.59;;;-2.11;100.00
13968;BME280;39536;52.198;9.920;2023-03-01T07:40:07;102103.47;;;-2.03;100.00
13968;BME280;39536;52.198;9.920;2023-03-01T07:42:34;102098.09;;;-1.90;100.00
13968;BME280;39536;52.198;9.920;2023-03-01T07:45:02;102093.59;;;-1.76;100.00
13968;BME280;39536;52.198;9.920;2023-03-01T07:47:29;102098.03;;;-1.72;100.00
13968;BME280;39536;52.198;9.920;2023-03-01T07:49:55;102093.25;;;-1.65;100.00
13968;BME280;39536;52.198;9.920;2023-03-01T07:52:22;102088.47;;;-1.57;100.00
13968;BME280;39536;52.198;9.920;2023-03-01T07:54:48;102094.94;;;-1.44;100.00
13968;BME280;39536;52.198;9.920;2023-03-01T07:57:15;102091.47;;;-1.46;100.00
13968;BME280;39536;52.198;9.920;2023-03-01T07:59:41;102097.84;;;-1.36;100.00
13968;BME280;39536;52.198;9.920;2023-03-01T08:02:10;102100.44;;;-1.35;100.00
13968;BME280;39536;52.198;9.920;2023-03-01T08:04:37;102104.19;;;-1.27;100.00
13968;BME280;39536;52.198;9.920;2023-03-01T08:07:04;102104.81;;;-1.32;100.00
13968;BME280;39536;52.198;9.920;2023-03-01T08:09:31;102105.63;;;-1.33;100.00
13968;BME280;39536;52.198;9.920;2023-03-01T08:12:00;102094.09;;;-1.24;100.00
13968;BME280;39536;52.198;9.920;2023-03-01T08:14:26;102099.13;;;-1.04;100.00
13968;BME280;39536;52.198;9.920;2023-03-01T08:16:53;102090.75;;;-0.79;100.00
13968;BME280;39536;52.198;9.920;2023-03-01T08:19:21;102100.81;;;-0.61;100.00
13968;BME280;39536;52.198;9.920;2023-03-01T08:21:47;102097.97;;;-0.47;100.00
13968;BME280;39536;52.198;9.920;2023-03-01T08:24:14;102091.09;;;-0.48;100.00
13968;BME280;39536;52.198;9.920;2023-03-01T08:26:41;102090.44;;;-0.42;100.00
13968;BME280;39536;52.198;9.920;2023-03-01T08:29:07;102095.81;;;-0.36;100.00
13968;BME280;39536;52.198;9.920;2023-03-01T08:31:35;102088.28;;;-0.31;100.00
13968;BME280;39536;52.198;9.920;2023-03-01T08:34:04;102085.03;;;-0.27;100.00
13968;BME280;39536;52.198;9.920;2023-03-01T08:36:35;102086.56;;;-0.08;100.00
13968;BME280;39536;52.198;9.920;2023-03-01T08:39:02;102083.00;;;0.12;100.00
13968;BME280;39536;52.198;9.920;2023-03-01T08:41:29;102082.97;;;0.35;100.00
13968;BME280;39536;52.198;9.920;2023-03-01T08:43:55;102088.44;;;0.45;100.00
13968;BME280;39536;52.198;9.920;2023-03-01T08:46:25;102085.75;;;0.42;100.00
13968;BME280;39536;52.198;9.920;2023-03-01T08:48:51;102091.88;;;0.46;100.00
13968;BME280;39536;52.198;9.920;2023-03-01T08:51:19;102083.09;;;0.65;100.00
13968;BME280;39536;52.198;9.920;2023-03-01T08:53:48;102086.13;;;0.79;100.00
13968;BME280;39536;52.198;9.920;2023-03-01T08:56:15;102091.84;;;0.97;100.00
13968;BME280;39536;52.198;9.920;2023-03-01T08:58:43;102086.19;;;1.07;100.00
13968;BME280;39536;52.198;9.920;2023-03-01T09:01:11;102092.34;;;1.12;100.00
13968;BME280;39536;52.198;9.920;2023-03-01T09:03:38;102092.63;;;1.22;100.00
13968;BME280;39536;52.198;9.920;2023-03-01T09:06:06;102087.97;;;1.10;100.00
13968;BME280;39536;52.198;9.920;2023-03-01T09:08:34;102084.31;;;1.30;100.00
13968;BME280;39536;52.198;9.920;2023-03-01T09:11:02;102090.34;;;1.31;100.00
13968;BME280;39536;52.198;9.920;2023-03-01T09:13:29;102088.00;;;1.40;100.00
13968;BME280;39536;52.198;9.920;2023-03-01T09:15:57;102082.88;;;1.40;100.00
13968;BME280;39536;52.198;9.920;2023-03-01T09:18:23;102080.75;;;1.54;100.00
13968;BME280;39536;52.198;9.920;2023-03-01T09:20:50;102080.22;;;1.66;100.00
13968;BME280;39536;52.198;9.920;2023-03-01T09:23:16;102078.91;;;1.80;100.00
13968;BME280;39536;52.198;9.920;2023-03-01T09:25:43;102073.25;;;1.92;100.00
13968;BME280;39536;52.198;9.920;2023-03-01T09:28:10;102075.31;;;2.05;100.00
13968;BME280;39536;52.198;9.920;2023-03-01T09:30:37;102070.47;;;2.16;100.00
13968;BME280;39536;52.198;9.920;2023-03-01T09:33:03;102064.59;;;2.20;100.00
13968;BME280;39536;52.198;9.920;2023-03-01T09:35:30;102064.81;;;2.29;100.00
13968;BME280;39536;52.198;9.920;2023-03-01T09:37:56;102068.72;;;2.46;100.00
13968;BME280;39536;52.198;9.920;2023-03-01T09:40:24;102066.94;;;2.45;100.00
13968;BME280;39536;52.198;9.920;2023-03-01T09:42:55;102056.81;;;2.51;100.00
13968;BME280;39536;52.198;9.920;2023-03-01T09:45:30;102061.47;;;2.66;100.00
13968;BME280;39536;52.198;9.920;2023-03-01T09:48:00;102052.50;;;2.85;100.00
13968;BME280;39536;52.198;9.920;2023-03-01T09:50:33;102059.44;;;2.88;100.00
13968;BME280;39536;52.198;9.920;2023-03-01T09:53:02;102055.22;;;2.91;100.00
13968;BME280;39536;52.198;9.920;2023-03-01T09:55:33;102052.28;;;3.14;100.00
13968;BME280;39536;52.198;9.920;2023-03-01T09:58:05;102046.47;;;3.21;100.00
13968;BME280;39536;52.198;9.920;2023-03-01T10:00:41;102051.78;;;3.30;100.00
13968;BME280;39536;52.198;9.920;2023-03-01T10:03:14;102046.91;;;3.42;100.00
13968;BME280;39536;52.198;9.920;2023-03-01T10:05:54;102051.13;;;3.39;100.00
13968;BME280;39536;52.198;9.920;2023-03-01T10:08:32;102050.31;;;3.41;100.00
13968;BME280;39536;52.198;9.920;2023-03-01T10:11:02;102047.00;;;3.47;100.00
13968;BME280;39536;52.198;9.920;2023-03-01T10:13:34;102051.56;;;3.60;100.00
13968;BME280;39536;52.198;9.920;2023-03-01T10:16:11;102052.88;;;3.82;100.00
13968;BME280;39536;52.198;9.920;2023-03-01T10:18:39;102050.69;;;4.02;100.00
13968;BME280;39536;52.198;9.920;2023-03-01T10:21:14;102050.13;;;4.20;100.00
13968;BME280;39536;52.198;9.920;2023-03-01T10:23:41;102046.16;;;4.39;100.00
13968;BME280;39536;52.198;9.920;2023-03-01T10:26:30;102050.63;;;4.48;100.00
13968;BME280;39536;52.198;9.920;2023-03-01T10:29:02;102044.38;;;4.33;100.00
13968;BME280;39536;52.198;9.920;2023-03-01T10:31:38;102047.13;;;4.43;100.00
13968;BME280;39536;52.198;9.920;2023-03-01T10:34:09;102051.69;;;4.59;100.00
13968;BME280;39536;52.198;9.920;2023-03-01T10:36:38;102052.59;;;4.62;100.00
13968;BME280;39536;52.198;9.920;2023-03-01T10:39:12;102052.03;;;4.80;100.00
13968;BME280;39536;52.198;9.920;2023-03-01T10:41:53;102043.44;;;4.81;100.00
13968;BME280;39536;52.198;9.920;2023-03-01T10:44:41;102043.47;;;4.84;100.00
13968;BME280;39536;52.198;9.920;2023-03-01T10:47:19;102042.75;;;4.95;100.00
13968;BME280;39536;52.198;9.920;2023-03-01T10:50:02;102042.97;;;5.08;100.00
13968;BME280;39536;52.198;9.920;2023-03-01T10:52:31;102032.78;;;5.19;100.00
13968;BME280;39536;52.198;9.920;2023-03-01T10:55:00;102032.09;;;5.32;100.00
13968;BME280;39536;52.198;9.920;2023-03-01T10:57:37;102029.69;;;5.46;100.00
13968;BME280;39536;52.198;9.920;2023-03-01T11:00:30;102030.63;;;5.53;100.00
13968;BME280;39536;52.198;9.920;2023-03-01T11:03:12;102024.75;;;5.65;100.00
13968;BME280;39536;52.198;9.920;2023-03-01T11:05:51;102026.59;;;5.75;100.00
13968;BME280;39536;52.198;9.920;2023-03-01T11:08:30;102029.97;;;5.68;100.00
13968;BME280;39536;52.198;9.920;2023-03-01T11:11:06;102027.41;;;5.71;100.00
13968;BME280;39536;52.198;9.920;2023-03-01T11:13:33;102029.19;;;5.75;100.00
13968;BME280;39536;52.198;9.920;2023-03-01T11:16:02;102022.50;;;5.94;100.00
13968;BME280;39536;52.198;9.920;2023-03-01T11:18:31;102015.69;;;6.00;100.00
13968;BME280;39536;52.198;9.920;2023-03-01T11:20:59;102017.66;;;6.24;100.00
13968;BME280;39536;52.198;9.920;2023-03-01T11:23:28;102010.75;;;6.25;100.00
13968;BME280;39536;52.198;9.920;2023-03-01T11:25:56;102010.72;;;6.22;100.00
13968;BME280;39536;52.198;9.920;2023-03-01T11:28:27;102008.88;;;6.09;100.00
13968;BME280;39536;52.198;9.920;2023-03-01T11:30:57;102011.53;;;6.16;100.00
13968;BME280;39536;52.198;9.920;2023-03-01T11:33:37;102010.84;;;6.36;100.00
13968;BME280;39536;52.198;9.920;2023-03-01T11:36:08;102003.97;;;6.36;100.00
13968;BME280;39536;52.198;9.920;2023-03-01T11:38:39;102008.28;;;6.39;98.14
13968;BME280;39536;52.198;9.920;2023-03-01T11:41:08;102004.03;;;6.45;98.41
13968;BME280;39536;52.198;9.920;2023-03-01T11:43:40;101998.03;;;6.51;98.15
13968;BME280;39536;52.198;9.920;2023-03-01T11:46:46;101995.44;;;6.50;98.88
13968;BME280;39536;52.198;9.920;2023-03-01T11:49:40;101993.00;;;6.71;97.77
13968;BME280;39536;52.198;9.920;2023-03-01T11:52:19;101996.41;;;6.64;94.67
13968;BME280;39536;52.198;9.920;2023-03-01T11:54:57;101994.84;;;6.86;94.09
13968;BME280;39536;52.198;9.920;2023-03-01T11:57:43;101995.66;;;6.82;94.89
13968;BME280;39536;52.198;9.920;2023-03-01T12:00:24;101985.28;;;6.77;93.86
13968;BME280;39536;52.198;9.920;2023-03-01T12:03:19;101981.84;;;6.81;91.81
13968;BME280;39536;52.198;9.920;2023-03-01T12:06:04;101982.63;;;6.69;93.42
13968;BME280;39536;52.198;9.920;2023-03-01T12:08:39;101985.16;;;6.62;92.41
13968;BME280;39536;52.198;9.920;2023-03-01T12:11:16;101985.28;;;6.77;93.82
13968;BME280;39536;52.198;9.920;2023-03-01T12:14:17;101965.56;;;7.04;93.02
13968;BME280;39536;52.198;9.920;2023-03-01T12:17:07;101967.41;;;7.29;93.16
13968;BME280;39536;52.198;9.920;2023-03-01T12:19:56;101965.66;;;7.28;91.54
13968;BME280;39536;52.198;9.920;2023-03-01T12:22:30;101959.63;;;7.23;89.44
13968;BME280;39536;52.198;9.920;2023-03-01T12:25:16;101957.00;;;7.18;89.29
13968;BME280;39536;52.198;9.920;2023-03-01T12:28:04;101950.19;;;7.48;89.65
13968;BME280;39536;52.198;9.920;2023-03-01T12:30:46;101951.09;;;7.66;89.77
13968;BME280;39536;52.198;9.920;2023-03-01T12:33:22;101945.94;;;7.81;88.22
13968;BME280;39536;52.198;9.920;2023-03-01T12:36:15;101939.03;;;7.77;86.54
13968;BME280;39536;52.198;9.920;2023-03-01T12:38:50;101930.38;;;7.78;86.02
13968;BME280;39536;52.198;9.920;2023-03-01T12:41:29;101932.13;;;7.90;85.81
13968;BME280;39536;52.198;9.920;2023-03-01T12:44:15;101920.88;;;8.03;83.48
13968;BME280;39536;52.198;9.920;2023-03-01T12:46:59;101919.13;;;8.06;84.03
13968;BME280;39536;52.198;9.920;2023-03-01T12:49:33;101921.75;;;8.23;83.80
13968;BME280;39536;52.198;9.920;2023-03-01T12:52:09;101913.94;;;8.25;84.57
13968;BME280;39536;52.198;9.920;2023-03-01T12:54:39;101903.56;;;8.37;83.51
13968;BME280;39536;52.198;9.920;2023-03-01T12:57:11;101900.09;;;8.55;83.27
13968;BME280;39536;52.198;9.920;2023-03-01T12:59:45;101900.03;;;8.69;77.02
13968;BME280;39536;52.198;9.920;2023-03-01T13:02:23;101893.16;;;8.62;73.51
13968;BME280;39536;52.198;9.920;2023-03-01T13:05:00;101878.44;;;8.53;76.82
13968;BME280;39536;52.198;9.920;2023-03-01T13:07:36;101879.34;;;8.49;73.35
13968;BME280;39536;52.198;9.920;2023-03-01T13:10:21;101878.47;;;8.44;77.50
13968;BME280;39536;52.198;9.920;2023-03-01T13:12:52;101871.56;;;8.29;75.53